sensor_id;sensor_type;location;lat;lon;timestamp;P1;durP1;ratioP1;P2;durP2;ratioP2
29686;SDS011;16599;47.078;15.536;2023-04-22T00:01:02;11.50;;;6.93;;
29686;SDS011;16599;47.078;15.536;2023-04-22T00:03:29;15.63;;;7.55;;
29686;SDS011;16599;47.078;15.536;2023-04-22T00:05:58;11.70;;;7.25;;
29686;SDS011;16599;47.078;15.536;2023-04-22T00:08:25;13.65;;;7.70;;
29686;SDS011;16599;47.078;15.536;2023-04-22T00:10:52;16.83;;;7.00;;
29686;SDS011;16599;47.078;15.536;2023-04-22T00:13:19;8.13;;;6.70;;
29686;SDS011;16599;47.078;15.536;2023-04-22T00:15:46;17.73;;;6.93;;
29686;SDS011;16599;47.078;15.536;2023-04-22T00:18:13;10.57;;;6.60;;
29686;SDS011;16599;47.078;15.536;2023-04-22T00:20:40;13.20;;;7.18;;
29686;SDS011;16599;47.078;15.536;2023-04-22T00:23:11;8.32;;;6.65;;
29686;SDS011;16599;47.078;15.536;2023-04-22T00:25:39;8.93;;;7.00;;
29686;SDS011;16599;47.078;15.536;2023-04-22T00:28:06;15.30;;;7.32;;
29686;SDS011;16599;47.078;15.536;2023-04-22T00:30:34;10.38;;;6.18;;
29686;SDS011;16599;47.078;15.536;2023-04-22T00:33:01;14.82;;;5.75;;
29686;SDS011;16599;47.078;15.536;2023-04-22T00:35:28;13.48;;;7.03;;
29686;SDS011;16599;47.078;15.536;2023-04-22T00:37:55;11.27;;;7.10;;
29686;SDS011;16599;47.078;15.536;2023-04-22T00:40:22;10.30;;;6.53;;
29686;SDS011;16599;47.078;15.536;2023-04-22T00:42:49;12.57;;;6.50;;
29686;SDS011;16599;47.078;15.536;2023-04-22T00:45:16;12.85;;;6.78;;
29686;SDS011;16599;47.078;15.536;2023-04-22T00:47:45;11.15;;;6.22;;
29686;SDS011;16599;47.078;15.536;2023-04-22T00:50:13;9.68;;;6.72;;
29686;SDS011;16599;47.078;15.536;2023-04-22T00:52:40;12.18;;;7.40;;
29686;SDS011;16599;47.078;15.536;2023-04-22T00:55:07;10.35;;;6.82;;
29686;SDS011;16599;47.078;15.536;2023-04-22T00:57:35;13.45;;;7.03;;
29686;SDS011;16599;47.078;15.536;2023-04-22T01:00:03;12.85;;;6.60;;
29686;SDS011;16599;47.078;15.536;2023-04-22T01:02:32;14.05;;;7.30;;
29686;SDS011;16599;47.078;15.536;2023-04-22T01:04:59;11.05;;;6.85;;
29686;SDS011;16599;47.078;15.536;2023-04-22T01:07:26;11.80;;;7.05;;
29686;SDS011;16599;47.078;15.536;2023-04-22T01:09:53;15.85;;;7.30;;
29686;SDS011;16599;47.078;15.536;2023-04-22T01:12:20;15.90;;;7.68;;
29686;SDS011;16599;47.078;15.536;2023-04-22T01:14:47;12.40;;;7.20;;
29686;SDS011;16599;47.078;15.536;2023-04-22T01:17:15;11.90;;;6.32;;
29686;SDS011;16599;47.078;15.536;2023-04-22T01:19:44;14.27;;;6.95;;
29686;SDS011;16599;47.078;15.536;2023-04-22T01:22:12;14.05;;;6.53;;
29686;SDS011;16599;47.078;15.536;2023-04-22T01:24:40;12.80;;;6.75;;
29686;SDS011;16599;47.078;15.536;2023-04-22T01:27:07;10.52;;;6.35;;
29686;SDS011;16599;47.078;15.536;2023-04-22T01:29:35;12.57;;;6.60;;
29686;SDS011;16599;47.078;15.536;2023-04-22T01:32:04;14.40;;;7.40;;
29686;SDS011;16599;47.078;15.536;2023-04-22T01:34:32;10.38;;;6.63;;
29686;SDS011;16599;47.078;15.536;2023-04-22T01:36:59;13.10;;;7.40;;
29686;SDS011;16599;47.078;15.536;2023-04-22T01:39:25;11.30;;;7.35;;
29686;SDS011;16599;47.078;15.536;2023-04-22T01:41:52;12.95;;;7.65;;
29686;SDS011;16599;47.078;15.536;2023-04-22T01:44:20;20.08;;;8.18;;
29686;SDS011;16599;47.078;15.536;2023-04-22T01:46:47;12.05;;;7.13;;
29686;SDS011;16599;47.078;15.536;2023-04-22T01:49:14;10.85;;;6.78;;
29686;SDS011;16599;47.078;15.536;2023-04-22T01:51:41;18.27;;;7.78;;
29686;SDS011;16599;47.078;15.536;2023-04-22T01:54:08;14.35;;;7.63;;
29686;SDS011;16599;47.078;15.536;2023-04-22T01:56:35;11.55;;;6.63;;
29686;SDS011;16599;47.078;15.536;2023-04-22T01:59:03;11.38;;;6.72;;
29686;SDS011;16599;47.078;15.536;2023-04-22T02:01:30;10.70;;;6.60;;
29686;SDS011;16599;47.078;15.536;2023-04-22T02:03:57;12.30;;;7.63;;
29686;SDS011;16599;47.078;15.536;2023-04-22T02:06:24;11.38;;;7.28;;
29686;SDS011;16599;47.078;15.536;2023-04-22T02:08:52;8.82;;;7.35;;
29686;SDS011;16599;47.078;15.536;2023-04-22T02:11:19;14.65;;;7.20;;
29686;SDS011;16599;47.078;15.536;2023-04-22T02:13:46;11.65;;;7.82;;
29686;SDS011;16599;47.078;15.536;2023-04-22T02:16:13;14.23;;;7.78;;
29686;SDS011;16599;47.078;15.536;2023-04-22T02:18:40;11.68;;;6.47;;
29686;SDS011;16599;47.078;15.536;2023-04-22T02:21:07;13.45;;;7.93;;
29686;SDS011;16599;47.078;15.536;2023-04-22T02:23:35;11.20;;;7.35;;
29686;SDS011;16599;47.078;15.536;2023-04-22T02:26:04;13.98;;;7.00;;
29686;SDS011;16599;47.078;15.536;2023-04-22T02:28:31;15.88;;;7.80;;
29686;SDS011;16599;47.078;15.536;2023-04-22T02:30:57;11.30;;;6.53;;
29686;SDS011;16599;47.078;15.536;2023-04-22T02:33:24;10.23;;;6.80;;
29686;SDS011;16599;47.078;15.536;2023-04-22T02:35:51;13.60;;;7.45;;
29686;SDS011;16599;47.078;15.536;2023-04-22T02:38:18;10.10;;;6.75;;
29686;SDS011;16599;47.078;15.536;2023-04-22T02:40:45;16.77;;;7.72;;
29686;SDS011;16599;47.078;15.536;2023-04-22T02:43:12;11.73;;;7.20;;
29686;SDS011;16599;47.078;15.536;2023-04-22T02:45:39;11.52;;;6.68;;
29686;SDS011;16599;47.078;15.536;2023-04-22T02:48:06;13.40;;;7.07;;
29686;SDS011;16599;47.078;15.536;2023-04-22T02:50:33;14.65;;;7.70;;
29686;SDS011;16599;47.078;15.536;2023-04-22T02:53:00;11.82;;;7.90;;
29686;SDS011;16599;47.078;15.536;2023-04-22T02:55:27;11.00;;;7.75;;
29686;SDS011;16599;47.078;15.536;2023-04-22T02:57:54;21.77;;;7.57;;
29686;SDS011;16599;47.078;15.536;2023-04-22T03:00:21;10.13;;;7.35;;
29686;SDS011;16599;47.078;15.536;2023-04-22T03:02:48;11.68;;;7.25;;
29686;SDS011;16599;47.078;15.536;2023-04-22T03:05:15;12.15;;;7.28;;
29686;SDS011;16599;47.078;15.536;2023-04-22T03:07:41;12.38;;;7.22;;
29686;SDS011;16599;47.078;15.536;2023-04-22T03:10:09;11.10;;;7.63;;
29686;SDS011;16599;47.078;15.536;2023-04-22T03:12:36;9.85;;;7.38;;
29686;SDS011;16599;47.078;15.536;2023-04-22T03:15:03;13.73;;;6.95;;
29686;SDS011;16599;47.078;15.536;2023-04-22T03:17:31;9.82;;;6.65;;
29686;SDS011;16599;47.078;15.536;2023-04-22T03:19:58;10.82;;;6.78;;
29686;SDS011;16599;47.078;15.536;2023-04-22T03:22:25;11.07;;;7.60;;
29686;SDS011;16599;47.078;15.536;2023-04-22T03:24:52;11.90;;;7.65;;
29686;SDS011;16599;47.078;15.536;2023-04-22T03:27:18;10.18;;;6.97;;
29686;SDS011;16599;47.078;15.536;2023-04-22T03:29:45;11.43;;;7.00;;
29686;SDS011;16599;47.078;15.536;2023-04-22T03:32:12;15.25;;;7.80;;
29686;SDS011;16599;47.078;15.536;2023-04-22T03:34:39;13.15;;;7.63;;
29686;SDS011;16599;47.078;15.536;2023-04-22T03:37:06;12.90;;;6.90;;
29686;SDS011;16599;47.078;15.536;2023-04-22T03:39:33;11.05;;;7.10;;
29686;SDS011;16599;47.078;15.536;2023-04-22T03:41:59;11.95;;;7.25;;
29686;SDS011;16599;47.078;15.536;2023-04-22T03:44:26;10.15;;;6.55;;
29686;SDS011;16599;47.078;15.536;2023-04-22T03:46:53;19.05;;;7.72;;
29686;SDS011;16599;47.078;15.536;2023-04-22T03:49:20;13.07;;;7.70;;
29686;SDS011;16599;47.078;15.536;2023-04-22T03:51:47;14.60;;;7.72;;
29686;SDS011;16599;47.078;15.536;2023-04-22T03:54:14;12.80;;;7.22;;
29686;SDS011;16599;47.078;15.536;2023-04-22T03:56:41;10.40;;;6.57;;
29686;SDS011;16599;47.078;15.536;2023-04-22T03:59:08;12.18;;;7.47;;
29686;SDS011;16599;47.078;15.536;2023-04-22T04:01:35;12.18;;;8.00;;
29686;SDS011;16599;47.078;15.536;2023-04-22T04:04:02;12.80;;;7.75;;
29686;SDS011;16599;47.078;15.536;2023-04-22T04:06:29;11.63;;;7.85;;
29686;SDS011;16599;47.078;15.536;2023-04-22T04:08:57;11.70;;;7.40;;
29686;SDS011;16599;47.078;15.536;2023-04-22T04:11:24;12.60;;;7.35;;
29686;SDS011;16599;47.078;15.536;2023-04-22T04:13:50;9.88;;;6.97;;
29686;SDS011;16599;47.078;15.536;2023-04-22T04:16:17;11.25;;;7.32;;
29686;SDS011;16599;47.078;15.536;2023-04-22T04:18:44;11.60;;;7.70;;
29686;SDS011;16599;47.078;15.536;2023-04-22T04:21:11;14.38;;;7.22;;
29686;SDS011;16599;47.078;15.536;2023-04-22T04:23:38;17.60;;;7.90;;
29686;SDS011;16599;47.078;15.536;2023-04-22T04:26:05;11.57;;;7.38;;
29686;SDS011;16599;47.078;15.536;2023-04-22T04:28:32;14.23;;;7.57;;
29686;SDS011;16599;47.078;15.536;2023-04-22T04:31:01;13.35;;;6.82;;
29686;SDS011;16599;47.078;15.536;2023-04-22T04:33:28;10.20;;;7.32;;
29686;SDS011;16599;47.078;15.536;2023-04-22T04:35:57;16.30;;;7.72;;
29686;SDS011;16599;47.078;15.536;2023-04-22T04:38:25;14.40;;;7.63;;
29686;SDS011;16599;47.078;15.536;2023-04-22T04:40:52;12.57;;;7.72;;
29686;SDS011;16599;47.078;15.536;2023-04-22T04:43:19;9.95;;;7.28;;
29686;SDS011;16599;47.078;15.536;2023-04-22T04:45:46;14.45;;;7.43;;
29686;SDS011;16599;47.078;15.536;2023-04-22T04:48:14;16.63;;;7.15;;
29686;SDS011;16599;47.078;15.536;2023-04-22T04:50:42;14.02;;;7.63;;
29686;SDS011;16599;47.078;15.536;2023-04-22T04:53:10;14.77;;;7.85;;
29686;SDS011;16599;47.078;15.536;2023-04-22T04:55:37;11.82;;;8.30;;
29686;SDS011;16599;47.078;15.536;2023-04-22T04:58:05;12.18;;;8.23;;
29686;SDS011;16599;47.078;15.536;2023-04-22T05:00:32;17.13;;;7.93;;
29686;SDS011;16599;47.078;15.536;2023-04-22T05:02:59;14.55;;;8.00;;
29686;SDS011;16599;47.078;15.536;2023-04-22T05:05:26;12.73;;;8.05;;
29686;SDS011;16599;47.078;15.536;2023-04-22T05:07:53;16.13;;;7.95;;
29686;SDS011;16599;47.078;15.536;2023-04-22T05:10:20;13.73;;;7.88;;
29686;SDS011;16599;47.078;15.536;2023-04-22T05:12:47;11.88;;;7.50;;
29686;SDS011;16599;47.078;15.536;2023-04-22T05:15:14;14.13;;;7.63;;
29686;SDS011;16599;47.078;15.536;2023-04-22T05:17:41;15.48;;;8.00;;
29686;SDS011;16599;47.078;15.536;2023-04-22T05:20:08;12.40;;;7.85;;
29686;SDS011;16599;47.078;15.536;2023-04-22T05:22:35;15.38;;;9.02;;
29686;SDS011;16599;47.078;15.536;2023-04-22T05:25:03;15.80;;;9.45;;
29686;SDS011;16599;47.078;15.536;2023-04-22T05:27:30;14.15;;;9.20;;
29686;SDS011;16599;47.078;15.536;2023-04-22T05:29:57;13.90;;;8.02;;
29686;SDS011;16599;47.078;15.536;2023-04-22T05:32:24;10.50;;;7.85;;
29686;SDS011;16599;47.078;15.536;2023-04-22T05:34:51;12.70;;;8.45;;
29686;SDS011;16599;47.078;15.536;2023-04-22T05:37:17;15.90;;;10.57;;
29686;SDS011;16599;47.078;15.536;2023-04-22T05:39:44;18.83;;;11.07;;
29686;SDS011;16599;47.078;15.536;2023-04-22T05:42:11;20.38;;;12.50;;
29686;SDS011;16599;47.078;15.536;2023-04-22T05:44:38;19.27;;;12.55;;
29686;SDS011;16599;47.078;15.536;2023-04-22T05:47:05;20.85;;;13.82;;
29686;SDS011;16599;47.078;15.536;2023-04-22T05:49:32;23.45;;;16.17;;
29686;SDS011;16599;47.078;15.536;2023-04-22T05:51:59;20.88;;;11.57;;
29686;SDS011;16599;47.078;15.536;2023-04-22T05:54:25;20.73;;;13.02;;
29686;SDS011;16599;47.078;15.536;2023-04-22T05:56:54;20.15;;;11.57;;
29686;SDS011;16599;47.078;15.536;2023-04-22T05:59:22;76.80;;;34.70;;
29686;SDS011;16599;47.078;15.536;2023-04-22T06:01:48;27.80;;;12.63;;
29686;SDS011;16599;47.078;15.536;2023-04-22T06:04:17;19.63;;;12.00;;
29686;SDS011;16599;47.078;15.536;2023-04-22T06:06:44;21.67;;;10.93;;
29686;SDS011;16599;47.078;15.536;2023-04-22T06:09:12;18.60;;;10.85;;
29686;SDS011;16599;47.078;15.536;2023-04-22T06:11:39;15.98;;;9.82;;
29686;SDS011;16599;47.078;15.536;2023-04-22T06:14:07;18.63;;;10.55;;
29686;SDS011;16599;47.078;15.536;2023-04-22T06:16:33;14.00;;;9.93;;
29686;SDS011;16599;47.078;15.536;2023-04-22T06:19:01;20.92;;;10.95;;
29686;SDS011;16599;47.078;15.536;2023-04-22T06:21:27;18.58;;;12.25;;
29686;SDS011;16599;47.078;15.536;2023-04-22T06:23:54;19.88;;;10.05;;
29686;SDS011;16599;47.078;15.536;2023-04-22T06:26:21;17.27;;;10.90;;
29686;SDS011;16599;47.078;15.536;2023-04-22T06:28:48;18.52;;;11.63;;
29686;SDS011;16599;47.078;15.536;2023-04-22T06:31:15;23.77;;;11.32;;
29686;SDS011;16599;47.078;15.536;2023-04-22T06:33:45;14.82;;;9.73;;
29686;SDS011;16599;47.078;15.536;2023-04-22T06:36:12;26.70;;;9.63;;
29686;SDS011;16599;47.078;15.536;2023-04-22T06:38:39;16.00;;;9.70;;
29686;SDS011;16599;47.078;15.536;2023-04-22T06:41:06;12.93;;;8.57;;
29686;SDS011;16599;47.078;15.536;2023-04-22T06:43:33;10.55;;;7.47;;
29686;SDS011;16599;47.078;15.536;2023-04-22T06:46:00;14.85;;;7.70;;
29686;SDS011;16599;47.078;15.536;2023-04-22T06:48:26;15.98;;;8.20;;
29686;SDS011;16599;47.078;15.536;2023-04-22T06:50:53;18.73;;;8.35;;
29686;SDS011;16599;47.078;15.536;2023-04-22T06:53:20;10.15;;;7.25;;
29686;SDS011;16599;47.078;15.536;2023-04-22T06:55:47;14.43;;;7.70;;
29686;SDS011;16599;47.078;15.536;2023-04-22T06:58:15;16.95;;;7.90;;
29686;SDS011;16599;47.078;15.536;2023-04-22T07:00:42;17.08;;;8.48;;
29686;SDS011;16599;47.078;15.536;2023-04-22T07:03:09;12.18;;;7.45;;
29686;SDS011;16599;47.078;15.536;2023-04-22T07:05:36;15.57;;;6.80;;
29686;SDS011;16599;47.078;15.536;2023-04-22T07:08:05;13.45;;;7.18;;
29686;SDS011;16599;47.078;15.536;2023-04-22T07:10:32;15.10;;;7.63;;
29686;SDS011;16599;47.078;15.536;2023-04-22T07:12:59;10.93;;;7.03;;
29686;SDS011;16599;47.078;15.536;2023-04-22T07:15:26;11.80;;;6.80;;
29686;SDS011;16599;47.078;15.536;2023-04-22T07:17:53;13.10;;;7.65;;
29686;SDS011;16599;47.078;15.536;2023-04-22T07:20:19;11.52;;;7.20;;
29686;SDS011;16599;47.078;15.536;2023-04-22T07:22:46;14.80;;;7.15;;
29686;SDS011;16599;47.078;15.536;2023-04-22T07:25:13;10.65;;;7.15;;
29686;SDS011;16599;47.078;15.536;2023-04-22T07:27:40;15.90;;;7.53;;
29686;SDS011;16599;47.078;15.536;2023-04-22T07:30:07;13.90;;;6.90;;
29686;SDS011;16599;47.078;15.536;2023-04-22T07:32:34;10.07;;;6.53;;
29686;SDS011;16599;47.078;15.536;2023-04-22T07:35:01;13.40;;;6.65;;
29686;SDS011;16599;47.078;15.536;2023-04-22T07:37:28;10.57;;;6.32;;
29686;SDS011;16599;47.078;15.536;2023-04-22T07:39:55;11.55;;;6.35;;
29686;SDS011;16599;47.078;15.536;2023-04-22T07:42:23;10.77;;;6.50;;
29686;SDS011;16599;47.078;15.536;2023-04-22T07:44:50;10.40;;;6.90;;
29686;SDS011;16599;47.078;15.536;2023-04-22T07:47:17;10.43;;;6.60;;
29686;SDS011;16599;47.078;15.536;2023-04-22T07:49:44;13.07;;;6.00;;
29686;SDS011;16599;47.078;15.536;2023-04-22T07:52:10;8.80;;;5.90;;
29686;SDS011;16599;47.078;15.536;2023-04-22T07:54:37;8.30;;;5.90;;
29686;SDS011;16599;47.078;15.536;2023-04-22T07:57:04;13.18;;;6.63;;
29686;SDS011;16599;47.078;15.536;2023-04-22T07:59:31;8.95;;;5.93;;
29686;SDS011;16599;47.078;15.536;2023-04-22T08:01:58;11.98;;;6.95;;
29686;SDS011;16599;47.078;15.536;2023-04-22T08:04:24;12.73;;;6.70;;
29686;SDS011;16599;47.078;15.536;2023-04-22T08:06:52;12.63;;;6.15;;
29686;SDS011;16599;47.078;15.536;2023-04-22T08:09:20;11.00;;;6.22;;
29686;SDS011;16599;47.078;15.536;2023-04-22T08:11:47;7.57;;;5.47;;
29686;SDS011;16599;47.078;15.536;2023-04-22T08:14:13;13.85;;;6.82;;
29686;SDS011;16599;47.078;15.536;2023-04-22T08:16:40;11.88;;;8.57;;
29686;SDS011;16599;47.078;15.536;2023-04-22T08:19:07;9.98;;;5.63;;
29686;SDS011;16599;47.078;15.536;2023-04-22T08:21:34;8.68;;;5.45;;
29686;SDS011;16599;47.078;15.536;2023-04-22T08:24:02;11.15;;;5.95;;
29686;SDS011;16599;47.078;15.536;2023-04-22T08:26:29;7.30;;;5.70;;
29686;SDS011;16599;47.078;15.536;2023-04-22T08:28:56;11.48;;;6.05;;
29686;SDS011;16599;47.078;15.536;2023-04-22T08:31:23;12.13;;;5.65;;
29686;SDS011;16599;47.078;15.536;2023-04-22T08:33:50;10.35;;;6.35;;
29686;SDS011;16599;47.078;15.536;2023-04-22T08:36:17;8.40;;;5.97;;
29686;SDS011;16599;47.078;15.536;2023-04-22T08:38:44;10.18;;;5.32;;
29686;SDS011;16599;47.078;15.536;2023-04-22T08:41:12;7.50;;;5.68;;
29686;SDS011;16599;47.078;15.536;2023-04-22T08:43:40;9.18;;;5.28;;
29686;SDS011;16599;47.078;15.536;2023-04-22T08:46:08;9.40;;;5.43;;
29686;SDS011;16599;47.078;15.536;2023-04-22T08:48:35;9.23;;;5.97;;
29686;SDS011;16599;47.078;15.536;2023-04-22T08:51:02;11.57;;;5.55;;
29686;SDS011;16599;47.078;15.536;2023-04-22T08:53:30;7.43;;;5.30;;
29686;SDS011;16599;47.078;15.536;2023-04-22T08:55:57;6.50;;;5.20;;
29686;SDS011;16599;47.078;15.536;2023-04-22T08:58:26;9.88;;;5.60;;
29686;SDS011;16599;47.078;15.536;2023-04-22T09:00:54;6.75;;;5.07;;
29686;SDS011;16599;47.078;15.536;2023-04-22T09:03:21;9.40;;;6.00;;
29686;SDS011;16599;47.078;15.536;2023-04-22T09:05:48;10.70;;;6.05;;
29686;SDS011;16599;47.078;15.536;2023-04-22T09:08:18;8.55;;;5.60;;
29686;SDS011;16599;47.078;15.536;2023-04-22T09:10:45;9.27;;;5.43;;
29686;SDS011;16599;47.078;15.536;2023-04-22T09:13:12;8.13;;;5.53;;
29686;SDS011;16599;47.078;15.536;2023-04-22T09:15:40;12.23;;;6.50;;
29686;SDS011;16599;47.078;15.536;2023-04-22T09:18:07;11.52;;;6.07;;
29686;SDS011;16599;47.078;15.536;2023-04-22T09:20:35;8.95;;;5.82;;
29686;SDS011;16599;47.078;15.536;2023-04-22T09:23:02;12.15;;;6.00;;
29686;SDS011;16599;47.078;15.536;2023-04-22T09:25:32;9.40;;;5.78;;
29686;SDS011;16599;47.078;15.536;2023-04-22T09:28:02;9.77;;;5.68;;
29686;SDS011;16599;47.078;15.536;2023-04-22T09:30:31;8.95;;;5.63;;
29686;SDS011;16599;47.078;15.536;2023-04-22T09:33:00;9.02;;;5.75;;
29686;SDS011;16599;47.078;15.536;2023-04-22T09:35:34;11.07;;;5.95;;
29686;SDS011;16599;47.078;15.536;2023-04-22T09:38:08;7.68;;;5.93;;
29686;SDS011;16599;47.078;15.536;2023-04-22T09:40:37;10.43;;;5.70;;
29686;SDS011;16599;47.078;15.536;2023-04-22T09:43:08;7.53;;;5.97;;
29686;SDS011;16599;47.078;15.536;2023-04-22T09:45:36;10.50;;;5.95;;
29686;SDS011;16599;47.078;15.536;2023-04-22T09:48:06;7.53;;;5.20;;
29686;SDS011;16599;47.078;15.536;2023-04-22T09:50:37;10.32;;;5.32;;
29686;SDS011;16599;47.078;15.536;2023-04-22T09:53:06;8.77;;;5.28;;
29686;SDS011;16599;47.078;15.536;2023-04-22T09:55:37;6.70;;;4.93;;
29686;SDS011;16599;47.078;15.536;2023-04-22T09:58:10;10.13;;;5.38;;
29686;SDS011;16599;47.078;15.536;2023-04-22T10:00:43;9.70;;;5.15;;
29686;SDS011;16599;47.078;15.536;2023-04-22T10:03:13;10.27;;;4.55;;
29686;SDS011;16599;47.078;15.536;2023-04-22T10:05:40;8.40;;;5.18;;
29686;SDS011;16599;47.078;15.536;2023-04-22T10:08:10;8.45;;;4.85;;
29686;SDS011;16599;47.078;15.536;2023-04-22T10:10:38;10.13;;;5.00;;
29686;SDS011;16599;47.078;15.536;2023-04-22T10:13:06;9.98;;;4.70;;
29686;SDS011;16599;47.078;15.536;2023-04-22T10:15:37;6.25;;;4.70;;
29686;SDS011;16599;47.078;15.536;2023-04-22T10:18:11;7.53;;;4.75;;
29686;SDS011;16599;47.078;15.536;2023-04-22T10:20:41;10.23;;;5.18;;
29686;SDS011;16599;47.078;15.536;2023-04-22T10:23:16;7.75;;;4.65;;
29686;SDS011;16599;47.078;15.536;2023-04-22T10:25:49;11.82;;;4.68;;
29686;SDS011;16599;47.078;15.536;2023-04-22T10:28:20;7.05;;;4.43;;
29686;SDS011;16599;47.078;15.536;2023-04-22T10:30:48;6.50;;;4.70;;
29686;SDS011;16599;47.078;15.536;2023-04-22T10:36:06;9.13;;;5.07;;
29686;SDS011;16599;47.078;15.536;2023-04-22T10:38:41;7.35;;;4.70;;
29686;SDS011;16599;47.078;15.536;2023-04-22T10:41:29;5.88;;;4.45;;
29686;SDS011;16599;47.078;15.536;2023-04-22T10:44:01;9.23;;;4.97;;
29686;SDS011;16599;47.078;15.536;2023-04-22T10:57:00;8.63;;;4.57;;
29686;SDS011;16599;47.078;15.536;2023-04-22T10:59:30;9.10;;;4.60;;
29686;SDS011;16599;47.078;15.536;2023-04-22T11:02:00;13.55;;;4.78;;
29686;SDS011;16599;47.078;15.536;2023-04-22T11:04:27;5.55;;;4.18;;
29686;SDS011;16599;47.078;15.536;2023-04-22T11:17:36;7.82;;;3.67;;
29686;SDS011;16599;47.078;15.536;2023-04-22T11:20:04;6.72;;;4.10;;
29686;SDS011;16599;47.078;15.536;2023-04-22T11:22:36;5.90;;;4.15;;
29686;SDS011;16599;47.078;15.536;2023-04-22T11:25:09;7.43;;;3.70;;
29686;SDS011;16599;47.078;15.536;2023-04-22T11:27:43;6.95;;;4.40;;
29686;SDS011;16599;47.078;15.536;2023-04-22T11:32:47;8.10;;;4.28;;
29686;SDS011;16599;47.078;15.536;2023-04-22T11:35:33;7.35;;;4.20;;
29686;SDS011;16599;47.078;15.536;2023-04-22T11:38:01;7.60;;;4.10;;
29686;SDS011;16599;47.078;15.536;2023-04-22T11:40:35;5.63;;;4.38;;
29686;SDS011;16599;47.078;15.536;2023-04-22T11:43:10;7.78;;;4.60;;
29686;SDS011;16599;47.078;15.536;2023-04-22T11:45:38;5.65;;;4.15;;
29686;SDS011;16599;47.078;15.536;2023-04-22T11:48:07;6.43;;;3.92;;
29686;SDS011;16599;47.078;15.536;2023-04-22T11:50:38;9.02;;;3.88;;
29686;SDS011;16599;47.078;15.536;2023-04-22T11:53:18;7.57;;;3.95;;
29686;SDS011;16599;47.078;15.536;2023-04-22T11:55:54;7.70;;;4.05;;
29686;SDS011;16599;47.078;15.536;2023-04-22T11:58:24;5.22;;;3.78;;
29686;SDS011;16599;47.078;15.536;2023-04-22T12:00:53;7.10;;;4.05;;
29686;SDS011;16599;47.078;15.536;2023-04-22T12:03:25;6.72;;;3.80;;
29686;SDS011;16599;47.078;15.536;2023-04-22T12:05:58;6.53;;;4.10;;
29686;SDS011;16599;47.078;15.536;2023-04-22T12:11:01;7.22;;;3.88;;
29686;SDS011;16599;47.078;15.536;2023-04-22T12:13:48;11.02;;;3.95;;
29686;SDS011;16599;47.078;15.536;2023-04-22T12:16:17;6.15;;;3.88;;
29686;SDS011;16599;47.078;15.536;2023-04-22T12:18:53;5.60;;;4.20;;
29686;SDS011;16599;47.078;15.536;2023-04-22T12:21:22;9.45;;;3.63;;
29686;SDS011;16599;47.078;15.536;2023-04-22T12:26:21;4.75;;;3.58;;
29686;SDS011;16599;47.078;15.536;2023-04-22T12:28:52;5.97;;;3.60;;
29686;SDS011;16599;47.078;15.536;2023-04-22T12:31:20;5.57;;;3.55;;
29686;SDS011;16599;47.078;15.536;2023-04-22T12:33:48;9.27;;;4.43;;
29686;SDS011;16599;47.078;15.536;2023-04-22T12:36:16;7.70;;;4.32;;
29686;SDS011;16599;47.078;15.536;2023-04-22T12:38:43;7.03;;;3.60;;
29686;SDS011;16599;47.078;15.536;2023-04-22T12:41:10;5.80;;;4.03;;
29686;SDS011;16599;47.078;15.536;2023-04-22T12:43:38;7.20;;;3.97;;
29686;SDS011;16599;47.078;15.536;2023-04-22T12:46:05;5.72;;;3.65;;
29686;SDS011;16599;47.078;15.536;2023-04-22T12:59:15;5.68;;;3.90;;
29686;SDS011;16599;47.078;15.536;2023-04-22T13:01:42;6.60;;;3.80;;
29686;SDS011;16599;47.078;15.536;2023-04-22T13:04:09;5.57;;;3.75;;
29686;SDS011;16599;47.078;15.536;2023-04-22T13:06:36;7.45;;;4.05;;
29686;SDS011;16599;47.078;15.536;2023-04-22T13:09:03;5.88;;;4.03;;
29686;SDS011;16599;47.078;15.536;2023-04-22T13:11:31;5.32;;;3.80;;
29686;SDS011;16599;47.078;15.536;2023-04-22T13:13:58;7.50;;;3.80;;
29686;SDS011;16599;47.078;15.536;2023-04-22T13:16:25;8.23;;;3.67;;
29686;SDS011;16599;47.078;15.536;2023-04-22T13:18:51;5.22;;;3.75;;
29686;SDS011;16599;47.078;15.536;2023-04-22T13:21:18;7.72;;;4.03;;
29686;SDS011;16599;47.078;15.536;2023-04-22T13:23:45;5.63;;;3.65;;
29686;SDS011;16599;47.078;15.536;2023-04-22T13:26:12;6.40;;;3.33;;
29686;SDS011;16599;47.078;15.536;2023-04-22T13:28:39;4.63;;;3.38;;
29686;SDS011;16599;47.078;15.536;2023-04-22T13:31:06;8.73;;;4.00;;
29686;SDS011;16599;47.078;15.536;2023-04-22T13:33:32;5.57;;;3.70;;
29686;SDS011;16599;47.078;15.536;2023-04-22T13:35:59;5.22;;;3.50;;
29686;SDS011;16599;47.078;15.536;2023-04-22T13:38:26;7.00;;;3.20;;
29686;SDS011;16599;47.078;15.536;2023-04-22T13:40:53;6.38;;;3.85;;
29686;SDS011;16599;47.078;15.536;2023-04-22T13:43:20;6.78;;;3.60;;
29686;SDS011;16599;47.078;15.536;2023-04-22T13:45:46;6.18;;;3.78;;
29686;SDS011;16599;47.078;15.536;2023-04-22T13:48:14;5.40;;;3.95;;
29686;SDS011;16599;47.078;15.536;2023-04-22T13:50:41;8.20;;;3.17;;
29686;SDS011;16599;47.078;15.536;2023-04-22T13:53:09;10.10;;;3.75;;
29686;SDS011;16599;47.078;15.536;2023-04-22T13:55:37;5.22;;;3.40;;
29686;SDS011;16599;47.078;15.536;2023-04-22T13:58:04;3.72;;;3.25;;
29686;SDS011;16599;47.078;15.536;2023-04-22T14:00:33;5.20;;;3.58;;
29686;SDS011;16599;47.078;15.536;2023-04-22T14:03:00;5.60;;;3.17;;
29686;SDS011;16599;47.078;15.536;2023-04-22T14:05:27;10.18;;;3.65;;
29686;SDS011;16599;47.078;15.536;2023-04-22T14:07:54;11.68;;;3.53;;
29686;SDS011;16599;47.078;15.536;2023-04-22T14:10:21;9.77;;;4.28;;
29686;SDS011;16599;47.078;15.536;2023-04-22T14:12:48;6.18;;;3.45;;
29686;SDS011;16599;47.078;15.536;2023-04-22T14:15:15;8.98;;;3.72;;
29686;SDS011;16599;47.078;15.536;2023-04-22T14:17:42;6.95;;;3.70;;
29686;SDS011;16599;47.078;15.536;2023-04-22T14:20:09;6.00;;;3.53;;
29686;SDS011;16599;47.078;15.536;2023-04-22T14:22:36;4.07;;;3.10;;
29686;SDS011;16599;47.078;15.536;2023-04-22T14:25:03;5.55;;;3.58;;
29686;SDS011;16599;47.078;15.536;2023-04-22T14:27:30;5.63;;;3.40;;
29686;SDS011;16599;47.078;15.536;2023-04-22T14:29:57;9.25;;;3.72;;
29686;SDS011;16599;47.078;15.536;2023-04-22T14:32:24;5.88;;;3.20;;
29686;SDS011;16599;47.078;15.536;2023-04-22T14:34:52;3.70;;;2.92;;
29686;SDS011;16599;47.078;15.536;2023-04-22T14:37:19;7.05;;;2.95;;
29686;SDS011;16599;47.078;15.536;2023-04-22T14:39:48;5.35;;;3.55;;
29686;SDS011;16599;47.078;15.536;2023-04-22T14:42:15;6.32;;;3.40;;
29686;SDS011;16599;47.078;15.536;2023-04-22T14:44:43;7.78;;;3.30;;
29686;SDS011;16599;47.078;15.536;2023-04-22T14:47:10;9.40;;;3.40;;
29686;SDS011;16599;47.078;15.536;2023-04-22T14:49:37;9.50;;;3.60;;
29686;SDS011;16599;47.078;15.536;2023-04-22T14:52:04;5.20;;;3.28;;
29686;SDS011;16599;47.078;15.536;2023-04-22T14:54:32;7.93;;;3.33;;
29686;SDS011;16599;47.078;15.536;2023-04-22T14:56:59;5.55;;;3.35;;
29686;SDS011;16599;47.078;15.536;2023-04-22T14:59:26;5.55;;;3.22;;
29686;SDS011;16599;47.078;15.536;2023-04-22T15:01:53;8.10;;;3.55;;
29686;SDS011;16599;47.078;15.536;2023-04-22T15:04:20;6.70;;;2.92;;
29686;SDS011;16599;47.078;15.536;2023-04-22T15:06:47;6.47;;;3.60;;
29686;SDS011;16599;47.078;15.536;2023-04-22T15:09:14;7.65;;;3.33;;
29686;SDS011;16599;47.078;15.536;2023-04-22T15:11:41;7.07;;;3.45;;